createdAt,value
2019-03-24T00:00:26.412Z,6.99
2019-03-24T00:02:57.827Z,6.96
2019-03-24T00:05:29.004Z,7.01
2019-03-24T00:08:00.378Z,6.98
2019-03-24T00:10:31.663Z,6.89
2019-03-24T00:13:02.975Z,6.90
2019-03-24T00:15:34.409Z,6.91
2019-03-24T00:18:05.843Z,6.81
2019-03-24T00:20:37.079Z,6.87
2019-03-24T00:23:08.493Z,6.85
2019-03-24T00:25:39.969Z,6.75
2019-03-24T00:28:11.240Z,6.89
2019-03-24T00:30:42.660Z,6.80
2019-03-24T00:33:14.048Z,6.71
2019-03-24T00:35:45.580Z,6.77
2019-03-24T00:38:16.951Z,6.71
2019-03-24T00:40:48.299Z,6.61
2019-03-24T00:43:19.605Z,6.55
2019-03-24T00:45:51.027Z,6.49
2019-03-24T00:48:22.317Z,6.58
2019-03-24T00:50:53.787Z,6.52
2019-03-24T00:53:25.157Z,6.56
2019-03-24T00:55:56.467Z,6.58
2019-03-24T00:58:27.739Z,6.44
2019-03-24T01:00:59.823Z,6.49
2019-03-24T01:03:31.169Z,6.51
2019-03-24T01:06:02.550Z,6.38
2019-03-24T01:08:33.770Z,6.34
2019-03-24T01:11:05.129Z,6.31
2019-03-24T01:13:36.419Z,6.26
2019-03-24T01:16:07.989Z,6.19
2019-03-24T01:18:39.513Z,6.18
2019-03-24T01:21:10.803Z,6.11
2019-03-24T01:23:42.082Z,6.05
2019-03-24T01:26:13.477Z,6.07
2019-03-24T01:28:44.775Z,5.96
2019-03-24T01:31:16.119Z,5.97
2019-03-24T01:33:48.284Z,6.05
2019-03-24T01:36:19.587Z,6.26
2019-03-24T01:38:50.778Z,6.34
2019-03-24T01:41:21.999Z,6.47
2019-03-24T01:43:53.363Z,6.60
2019-03-24T01:46:24.724Z,6.71
2019-03-24T01:48:56.659Z,6.83
2019-03-24T01:51:28.029Z,6.86
2019-03-24T01:53:59.304Z,6.88
2019-03-24T01:56:30.548Z,6.90
2019-03-24T01:59:01.746Z,6.91
2019-03-24T02:01:32.991Z,6.89
2019-03-24T02:04:04.209Z,6.96
2019-03-24T02:06:35.333Z,6.96
2019-03-24T02:09:09.144Z,6.97
2019-03-24T02:11:40.353Z,7.00
2019-03-24T02:14:11.615Z,7.01
2019-03-24T02:16:42.928Z,7.01
2019-03-24T02:19:14.091Z,7.03
2019-03-24T02:21:45.447Z,7.02
2019-03-24T02:24:16.768Z,7.00
2019-03-24T02:26:48.049Z,6.99
2019-03-24T02:29:19.398Z,6.98
2019-03-24T02:31:50.723Z,7.01
2019-03-24T02:34:22.114Z,7.00
2019-03-24T02:36:53.393Z,6.98
2019-03-24T02:39:24.787Z,6.98
2019-03-24T02:41:56.100Z,7.02
2019-03-24T02:44:27.330Z,7.01
2019-03-24T02:46:58.615Z,7.00
2019-03-24T02:49:29.835Z,7.01
2019-03-24T02:52:01.181Z,7.01
2019-03-24T02:54:32.468Z,6.99
2019-03-24T02:57:04.663Z,7.00
2019-03-24T02:59:35.923Z,6.98
2019-03-24T03:02:07.553Z,7.00
2019-03-24T03:04:38.765Z,7.07
2019-03-24T03:07:10.104Z,7.01
2019-03-24T03:09:41.348Z,7.10
2019-03-24T03:12:12.695Z,7.07
2019-03-24T03:14:44.067Z,7.07
2019-03-24T03:17:15.391Z,7.11
2019-03-24T03:19:46.599Z,7.06
2019-03-24T03:22:18.303Z,6.98
2019-03-24T03:24:49.589Z,6.95
2019-03-24T03:27:20.879Z,6.96
2019-03-24T03:29:52.292Z,6.90
2019-03-24T03:32:23.650Z,6.89
2019-03-24T03:34:54.921Z,6.94
2019-03-24T03:37:26.291Z,6.95
2019-03-24T03:39:58.474Z,6.96
2019-03-24T03:42:30.265Z,6.96
2019-03-24T03:45:01.525Z,6.98
2019-03-24T03:47:32.919Z,6.85
2019-03-24T03:50:04.633Z,6.89
2019-03-24T03:52:36.145Z,6.79
2019-03-24T03:55:08.731Z,6.59
2019-03-24T03:57:40.010Z,6.56
2019-03-24T04:00:12.599Z,6.34
2019-03-24T04:02:43.880Z,6.16
2019-03-24T04:05:15.255Z,5.94
2019-03-24T04:07:46.542Z,5.84
2019-03-24T04:10:17.935Z,5.73
2019-03-24T04:12:49.085Z,5.60
2019-03-24T04:15:20.384Z,5.48
2019-03-24T04:17:51.665Z,5.37
2019-03-24T04:20:23.080Z,5.34
2019-03-24T04:22:54.326Z,5.37
2019-03-24T04:25:25.880Z,5.37
2019-03-24T04:27:57.224Z,5.33
2019-03-24T04:30:28.839Z,5.35
2019-03-24T04:33:00.174Z,5.27
2019-03-24T04:35:31.809Z,5.23
2019-03-24T04:38:03.591Z,5.22
2019-03-24T04:40:35.138Z,5.18
2019-03-24T04:43:06.382Z,5.16
2019-03-24T04:45:37.823Z,5.14
2019-03-24T04:48:09.037Z,5.20
2019-03-24T04:50:40.412Z,5.24
2019-03-24T04:53:11.873Z,5.21
2019-03-24T04:55:44.326Z,5.24
2019-03-24T04:58:18.129Z,5.29
2019-03-24T05:00:49.784Z,5.25
2019-03-24T05:03:21.442Z,5.28
2019-03-24T05:05:53.774Z,5.32
2019-03-24T05:08:25.638Z,5.47
2019-03-24T05:10:56.910Z,5.53
2019-03-24T05:13:28.638Z,5.57
2019-03-24T05:16:00.149Z,5.54
2019-03-24T05:18:31.412Z,5.55
2019-03-24T05:21:02.958Z,5.59
2019-03-24T05:23:34.257Z,5.72
2019-03-24T05:26:06.309Z,5.81
2019-03-24T05:28:37.905Z,5.82
2019-03-24T05:31:09.284Z,5.88
2019-03-24T05:33:40.802Z,6.01
2019-03-24T05:36:12.101Z,6.12
2019-03-24T05:38:43.531Z,6.30
2019-03-24T05:41:15.386Z,6.54
2019-03-24T05:43:46.801Z,7.08
2019-03-24T05:46:18.362Z,7.68
2019-03-24T05:48:49.704Z,8.15
2019-03-24T05:51:21.159Z,8.55
2019-03-24T05:53:52.579Z,8.68
2019-03-24T05:56:23.980Z,9.57
2019-03-24T05:58:55.771Z,10.49
2019-03-24T06:01:27.609Z,11.36
2019-03-24T06:04:00.777Z,11.92
2019-03-24T06:06:31.981Z,12.09
2019-03-24T06:09:04.916Z,12.32
2019-03-24T06:11:36.704Z,11.54
2019-03-24T06:14:08.241Z,12.49
2019-03-24T06:16:39.544Z,13.18
2019-03-24T06:19:11.464Z,13.17
2019-03-24T06:21:43.106Z,13.55
2019-03-24T06:24:14.499Z,12.85
2019-03-24T06:26:45.797Z,12.63
2019-03-24T06:29:17.240Z,11.14
2019-03-24T06:31:48.775Z,11.77
2019-03-24T06:34:20.048Z,11.80
2019-03-24T06:36:51.603Z,12.21
2019-03-24T06:39:22.851Z,13.32
2019-03-24T06:41:54.215Z,13.01
2019-03-24T06:44:25.576Z,14.20
2019-03-24T06:46:56.895Z,14.44
2019-03-24T06:49:28.377Z,15.83
2019-03-24T06:51:59.712Z,14.69
2019-03-24T06:54:31.264Z,13.25
2019-03-24T06:57:02.555Z,12.68
2019-03-24T06:59:34.021Z,13.32
2019-03-24T07:02:05.355Z,13.14
2019-03-24T07:04:36.654Z,12.46
2019-03-24T07:07:08.152Z,11.72
2019-03-24T07:09:39.446Z,11.65
2019-03-24T07:12:10.790Z,11.79
2019-03-24T07:14:42.074Z,11.61
2019-03-24T07:17:13.411Z,11.21
2019-03-24T07:19:44.656Z,11.18
2019-03-24T07:22:16.117Z,11.57
2019-03-24T07:24:47.425Z,11.25
2019-03-24T07:27:19.067Z,11.84
2019-03-24T07:29:50.398Z,12.35
2019-03-24T07:32:21.784Z,12.41
2019-03-24T07:34:53.372Z,11.42
2019-03-24T07:37:24.739Z,11.69
2019-03-24T07:39:56.209Z,12.60
2019-03-24T07:42:27.832Z,15.06
2019-03-24T07:44:59.367Z,14.99
2019-03-24T07:47:30.624Z,15.09
2019-03-24T07:50:01.926Z,15.62
2019-03-24T07:52:33.286Z,15.40
2019-03-24T07:55:05.074Z,14.80
2019-03-24T07:57:36.420Z,14.43
2019-03-24T08:00:09.593Z,18.06
2019-03-24T08:02:51.018Z,20.45
2019-03-24T08:05:18.059Z,22.61
2019-03-24T08:07:49.518Z,18.59
2019-03-24T08:10:20.887Z,18.46
2019-03-24T08:12:52.315Z,20.62
2019-03-24T08:15:23.889Z,22.41
2019-03-24T08:17:55.440Z,22.09
2019-03-24T08:20:26.974Z,20.04
2019-03-24T08:22:59.418Z,21.19
2019-03-24T08:25:30.898Z,19.32
2019-03-24T08:28:02.370Z,20.17
2019-03-24T08:30:37.276Z,20.58
2019-03-24T08:33:09.059Z,22.85
2019-03-24T08:35:40.471Z,23.57
2019-03-24T08:38:11.988Z,24.63
2019-03-24T08:40:43.325Z,19.77
2019-03-24T08:43:14.962Z,18.81
2019-03-24T08:45:46.722Z,18.46
2019-03-24T08:48:18.125Z,17.10
2019-03-24T08:50:49.510Z,15.33
2019-03-24T08:53:23.012Z,16.68
2019-03-24T08:55:54.847Z,19.90
2019-03-24T08:58:26.877Z,20.75
2019-03-24T09:00:58.667Z,22.09
2019-03-24T09:03:32.638Z,20.20
2019-03-24T09:06:04.646Z,19.32
2019-03-24T09:08:36.631Z,21.58
2019-03-24T09:11:08.527Z,22.38
2019-03-24T09:13:40.420Z,21.93
2019-03-24T09:16:12.396Z,20.05
2019-03-24T09:18:52.514Z,18.76
2019-03-24T09:21:19.547Z,19.57
2019-03-24T09:23:50.925Z,18.37
2019-03-24T09:26:23.190Z,18.74
2019-03-24T09:28:55.011Z,19.69
2019-03-24T09:31:27.012Z,18.75
2019-03-24T09:33:59.124Z,17.76
2019-03-24T09:36:30.779Z,16.96
2019-03-24T09:39:02.245Z,17.19
2019-03-24T09:41:33.879Z,16.83
2019-03-24T09:44:05.384Z,18.02
2019-03-24T09:46:37.160Z,18.60
2019-03-24T09:49:08.607Z,20.85
2019-03-24T09:51:40.084Z,21.86
2019-03-24T09:54:11.529Z,25.38
2019-03-24T09:56:43.002Z,26.66
2019-03-24T09:59:14.280Z,26.97
2019-03-24T10:01:45.574Z,25.53
2019-03-24T10:04:17.488Z,22.70
2019-03-24T10:06:49.360Z,20.53
2019-03-24T10:09:20.737Z,18.94
2019-03-24T10:11:52.218Z,17.75
2019-03-24T10:14:23.679Z,16.34
2019-03-24T10:16:55.757Z,17.02
2019-03-24T10:19:27.240Z,19.80
2019-03-24T10:21:59.050Z,21.10
2019-03-24T10:24:30.267Z,23.58
2019-03-24T10:27:01.775Z,24.54
2019-03-24T10:29:33.196Z,25.00
2019-03-24T10:32:04.543Z,26.91
2019-03-24T10:34:35.888Z,27.97
2019-03-24T10:37:07.348Z,24.78
2019-03-24T10:39:41.124Z,26.32
2019-03-24T10:42:12.690Z,27.02
2019-03-24T10:44:44.105Z,26.03
2019-03-24T10:47:15.548Z,27.85
2019-03-24T10:49:46.884Z,25.93
2019-03-24T10:52:18.166Z,26.78
2019-03-24T10:54:49.504Z,28.42
2019-03-24T10:57:21.079Z,27.79
2019-03-24T10:59:52.414Z,28.07
2019-03-24T11:02:23.875Z,26.65
2019-03-24T11:04:55.598Z,25.91
2019-03-24T11:07:27.114Z,25.53
2019-03-24T11:09:58.514Z,22.35
2019-03-24T11:12:29.874Z,25.14
2019-03-24T11:15:01.930Z,25.25
2019-03-24T11:17:33.469Z,24.79
2019-03-24T11:20:05.809Z,25.17
2019-03-24T11:22:37.372Z,24.12
2019-03-24T11:25:11.069Z,22.28
2019-03-24T11:27:42.500Z,20.92
2019-03-24T11:30:16.475Z,18.11
2019-03-24T11:32:47.993Z,18.69
2019-03-24T11:35:19.498Z,18.61
2019-03-24T11:37:50.978Z,17.77
2019-03-24T11:40:22.274Z,17.18
2019-03-24T11:42:53.839Z,16.62
2019-03-24T11:45:25.245Z,17.30
2019-03-24T11:47:56.849Z,17.37
2019-03-24T11:50:28.304Z,16.91
2019-03-24T11:52:59.652Z,16.62
2019-03-24T11:55:31.024Z,17.05
2019-03-24T11:58:06.035Z,16.96
2019-03-24T12:00:40.828Z,16.87
2019-03-24T12:03:13.094Z,17.08
2019-03-24T12:05:44.889Z,16.73
2019-03-24T12:08:17.235Z,17.25
2019-03-24T12:10:48.582Z,17.04
2019-03-24T12:13:20.068Z,16.90
2019-03-24T12:15:51.351Z,15.67
2019-03-24T12:18:22.842Z,15.17
2019-03-24T12:20:54.326Z,16.04
2019-03-24T12:23:25.724Z,16.58
2019-03-24T12:25:57.058Z,16.09
2019-03-24T12:28:28.416Z,16.42
2019-03-24T12:30:59.839Z,16.27
2019-03-24T12:33:31.264Z,15.80
2019-03-24T12:36:02.657Z,15.87
2019-03-24T12:38:34.127Z,16.37
2019-03-24T12:41:05.788Z,16.44
2019-03-24T12:43:37.169Z,16.19
2019-03-24T12:46:08.634Z,15.95
2019-03-24T12:48:39.900Z,16.60
2019-03-24T12:51:11.390Z,16.43
2019-03-24T12:53:42.900Z,16.37
2019-03-24T12:56:14.258Z,16.15
2019-03-24T12:58:45.579Z,16.58
2019-03-24T13:01:17.400Z,16.38
2019-03-24T13:03:48.808Z,16.64
2019-03-24T13:06:20.178Z,16.15
2019-03-24T13:08:51.944Z,16.26
2019-03-24T13:11:23.441Z,15.64
2019-03-24T13:13:54.799Z,15.57
2019-03-24T13:16:26.293Z,14.49
2019-03-24T13:18:57.554Z,14.22
2019-03-24T13:21:29.011Z,14.93
2019-03-24T13:24:00.614Z,14.94
2019-03-24T13:26:32.103Z,15.14
2019-03-24T13:29:03.677Z,14.77
2019-03-24T13:31:35.091Z,14.70
2019-03-24T13:34:06.632Z,15.02
2019-03-24T13:36:37.958Z,15.15
2019-03-24T13:39:09.933Z,15.47
2019-03-24T13:41:41.465Z,15.78
2019-03-24T13:44:12.738Z,15.76
2019-03-24T13:46:44.684Z,15.06
2019-03-24T13:49:16.127Z,15.14
2019-03-24T13:51:47.794Z,15.24
2019-03-24T13:54:19.114Z,14.79
2019-03-24T13:56:50.533Z,14.52
2019-03-24T13:59:22.028Z,14.52
2019-03-24T14:01:53.373Z,14.42
2019-03-24T14:04:24.735Z,14.29
2019-03-24T14:06:56.610Z,14.21
2019-03-24T14:09:28.078Z,13.84
2019-03-24T14:11:59.743Z,13.85
2019-03-24T14:14:31.319Z,13.99
2019-03-24T14:17:02.860Z,13.97
2019-03-24T14:19:34.434Z,13.85
2019-03-24T14:22:06.304Z,13.76
2019-03-24T14:24:37.634Z,13.75
2019-03-24T14:27:08.948Z,13.82
2019-03-24T14:29:40.394Z,13.69
2019-03-24T14:32:11.968Z,13.59
2019-03-24T14:34:43.359Z,13.58
2019-03-24T14:37:14.880Z,13.48
2019-03-24T14:39:46.338Z,13.54
2019-03-24T14:42:17.889Z,13.68
2019-03-24T14:44:49.307Z,13.66
2019-03-24T14:47:20.738Z,13.67
2019-03-24T14:49:52.330Z,13.38
2019-03-24T14:52:23.824Z,13.27
2019-03-24T14:54:55.139Z,13.08
2019-03-24T14:57:26.470Z,12.86
2019-03-24T14:59:58.110Z,12.77
2019-03-24T15:02:29.514Z,12.82
2019-03-24T15:05:00.885Z,12.81
2019-03-24T15:07:32.441Z,12.90
2019-03-24T15:10:04.076Z,12.73
2019-03-24T15:12:35.479Z,12.69
2019-03-24T15:15:07.704Z,12.60
2019-03-24T15:17:39.178Z,12.66
2019-03-24T15:20:10.950Z,12.79
2019-03-24T15:22:42.395Z,12.99
2019-03-24T15:25:14.184Z,12.99
2019-03-24T15:27:45.604Z,12.90
2019-03-24T15:30:17.703Z,12.88
2019-03-24T15:32:49.575Z,12.94
2019-03-24T15:35:20.994Z,12.90
2019-03-24T15:37:52.798Z,12.77
2019-03-24T15:40:24.694Z,12.22
2019-03-24T15:42:56.032Z,12.19
2019-03-24T15:45:27.440Z,12.22
2019-03-24T15:47:58.944Z,12.17
2019-03-24T15:50:30.604Z,12.22
2019-03-24T15:53:02.198Z,12.19
2019-03-24T15:55:34.254Z,12.10
2019-03-24T15:58:05.969Z,11.97
2019-03-24T16:00:47.670Z,12.11
2019-03-24T16:03:19.374Z,12.19
2019-03-24T16:05:50.979Z,12.23
2019-03-24T16:08:22.528Z,11.99
2019-03-24T16:10:53.924Z,11.88
2019-03-24T16:13:25.525Z,11.75
2019-03-24T16:15:58.463Z,11.62
2019-03-24T16:18:30.250Z,11.66
2019-03-24T16:21:01.745Z,11.53
2019-03-24T16:23:33.102Z,11.48
2019-03-24T16:26:06.893Z,11.51
2019-03-24T16:28:38.424Z,11.35
2019-03-24T16:31:11.068Z,11.38
2019-03-24T16:33:42.576Z,11.24
2019-03-24T16:36:14.058Z,11.10
2019-03-24T16:38:49.123Z,11.12
2019-03-24T16:41:19.058Z,10.92
2019-03-24T16:43:50.612Z,10.94
2019-03-24T16:46:21.984Z,10.88
2019-03-24T16:48:53.499Z,10.82
2019-03-24T16:51:25.237Z,10.78
2019-03-24T16:53:56.827Z,10.76
2019-03-24T16:56:30.958Z,10.81
2019-03-24T16:59:02.491Z,10.73
2019-03-24T17:01:35.013Z,10.72
2019-03-24T17:04:10.544Z,10.78
2019-03-24T17:06:44.737Z,10.83
2019-03-24T17:09:17.793Z,10.72
2019-03-24T17:11:57.530Z,10.77
2019-03-24T17:14:29.044Z,10.74
2019-03-24T17:17:03.859Z,10.65
2019-03-24T17:19:36.478Z,10.59
2019-03-24T17:22:11.254Z,10.42
2019-03-24T17:24:42.902Z,10.39
2019-03-24T17:27:17.333Z,10.33
2019-03-24T17:29:51.794Z,10.19
2019-03-24T17:32:23.629Z,10.13
2019-03-24T17:34:57.879Z,10.05
2019-03-24T17:37:30.294Z,10.02
2019-03-24T17:40:02.834Z,9.98
2019-03-24T17:42:35.379Z,9.97
2019-03-24T17:45:08.119Z,9.89
2019-03-24T17:47:40.749Z,9.79
2019-03-24T17:50:16.624Z,9.73
2019-03-24T17:52:52.698Z,9.68
2019-03-24T17:55:30.964Z,9.61
2019-03-24T17:58:02.883Z,9.54
2019-03-24T18:00:46.674Z,9.47
2019-03-24T18:03:18.215Z,9.46
2019-03-24T18:05:50.769Z,9.37
2019-03-24T18:08:23.264Z,9.35
2019-03-24T18:10:58.318Z,9.37
2019-03-24T18:13:32.839Z,9.29
2019-03-24T18:16:04.277Z,9.25
2019-03-24T18:18:39.929Z,9.16
2019-03-24T18:21:13.818Z,9.13
2019-03-24T18:23:50.968Z,9.08
2019-03-24T18:26:22.478Z,9.09
2019-03-24T18:28:54.220Z,9.14
2019-03-24T18:31:28.400Z,9.11
2019-03-24T18:34:01.899Z,9.15
2019-03-24T18:36:36.458Z,9.16
2019-03-24T18:39:11.985Z,9.16
2019-03-24T18:41:45.048Z,9.17
2019-03-24T18:44:18.680Z,9.31
2019-03-24T18:46:52.175Z,9.32
2019-03-24T18:49:24.794Z,9.32
2019-03-24T18:52:00.590Z,9.13
2019-03-24T18:54:34.715Z,9.00
2019-03-24T18:57:07.395Z,8.67
2019-03-24T18:59:49.538Z,8.53
2019-03-24T19:02:24.062Z,8.53
2019-03-24T19:05:00.354Z,8.58
2019-03-24T19:07:33.071Z,8.82
2019-03-24T19:10:10.169Z,8.88
2019-03-24T19:12:43.838Z,8.88
2019-03-24T19:15:20.134Z,8.79
2019-03-24T19:17:53.869Z,8.80
2019-03-24T19:20:25.268Z,8.82
2019-03-24T19:23:01.778Z,8.88
2019-03-24T19:25:42.799Z,9.02
2019-03-24T19:28:15.710Z,9.03
2019-03-24T19:30:49.220Z,8.93
2019-03-24T19:33:23.423Z,8.85
2019-03-24T19:36:01.959Z,8.89
2019-03-24T19:38:34.338Z,8.96
2019-03-24T19:41:09.128Z,8.99
2019-03-24T19:43:42.840Z,8.98
2019-03-24T19:46:14.703Z,9.02
2019-03-24T19:48:47.091Z,8.91
2019-03-24T19:51:21.100Z,8.86
2019-03-24T19:53:57.203Z,8.98
2019-03-24T19:56:28.624Z,9.07
2019-03-24T19:59:02.088Z,9.00
2019-03-24T20:01:39.681Z,8.97
2019-03-24T20:04:12.278Z,8.96
2019-03-24T20:06:47.914Z,8.88
2019-03-24T20:09:19.445Z,8.89
2019-03-24T20:11:54.812Z,8.88
2019-03-24T20:14:30.069Z,8.94
2019-03-24T20:17:01.471Z,8.83
2019-03-24T20:19:36.454Z,8.84
2019-03-24T20:22:14.135Z,8.80
2019-03-24T20:24:51.523Z,8.77
2019-03-24T20:27:30.851Z,8.77
2019-03-24T20:30:07.415Z,8.72
2019-03-24T20:32:43.306Z,8.70
2019-03-24T20:35:18.069Z,8.74
2019-03-24T20:37:51.783Z,8.82
2019-03-24T20:40:23.435Z,8.74
2019-03-24T20:42:55.294Z,8.82
2019-03-24T20:45:26.800Z,8.78
2019-03-24T20:48:02.518Z,8.80
2019-03-24T20:50:40.163Z,8.63
2019-03-24T20:53:18.472Z,8.53
2019-03-24T20:55:50.450Z,8.54
2019-03-24T20:58:23.024Z,8.52
2019-03-24T21:00:54.448Z,8.35
2019-03-24T21:03:25.921Z,8.23
2019-03-24T21:05:57.378Z,8.00
2019-03-24T21:08:31.645Z,7.81
2019-03-24T21:11:04.504Z,7.62
2019-03-24T21:13:35.994Z,7.57
2019-03-24T21:16:09.824Z,7.64
2019-03-24T21:18:41.260Z,7.65
2019-03-24T21:21:12.549Z,7.72
2019-03-24T21:23:43.778Z,7.71
2019-03-24T21:26:15.245Z,7.61
2019-03-24T21:28:46.658Z,7.43
2019-03-24T21:31:18.015Z,7.31
2019-03-24T21:33:49.318Z,7.16
2019-03-24T21:36:22.125Z,7.25
2019-03-24T21:38:53.549Z,7.30
2019-03-24T21:41:24.942Z,7.30
2019-03-24T21:43:56.529Z,7.44
2019-03-24T21:46:27.790Z,7.46
2019-03-24T21:48:59.064Z,7.50
2019-03-24T21:51:30.322Z,7.58
2019-03-24T21:54:02.494Z,7.55
2019-03-24T21:56:34.019Z,7.50
2019-03-24T21:59:05.342Z,7.49
2019-03-24T22:01:36.675Z,7.52
2019-03-24T22:04:08.061Z,7.53
2019-03-24T22:06:40.004Z,7.56
2019-03-24T22:09:11.621Z,7.51
2019-03-24T22:11:42.859Z,7.57
2019-03-24T22:14:15.576Z,7.48
2019-03-24T22:16:46.959Z,7.39
2019-03-24T22:19:18.425Z,7.25
2019-03-24T22:21:49.570Z,7.11
2019-03-24T22:24:20.940Z,7.00
2019-03-24T22:26:52.399Z,7.01
2019-03-24T22:29:23.799Z,6.93
2019-03-24T22:31:55.126Z,6.88
2019-03-24T22:34:26.333Z,6.81
2019-03-24T22:36:57.465Z,6.72
2019-03-24T22:39:29.236Z,6.64
2019-03-24T22:42:00.739Z,6.49
2019-03-24T22:44:31.904Z,6.41
2019-03-24T22:47:03.439Z,6.38
2019-03-24T22:49:34.643Z,6.34
2019-03-24T22:52:07.407Z,6.34
2019-03-24T22:54:39.476Z,6.22
2019-03-24T22:57:10.890Z,6.22
2019-03-24T22:59:42.301Z,6.29
2019-03-24T23:02:13.783Z,6.25
2019-03-24T23:04:45.171Z,6.34
2019-03-24T23:07:16.663Z,6.35
2019-03-24T23:09:48.159Z,6.42
2019-03-24T23:12:19.604Z,6.46
2019-03-24T23:14:50.862Z,6.48
2019-03-24T23:17:22.213Z,6.65
2019-03-24T23:19:53.870Z,6.52
2019-03-24T23:22:25.208Z,6.47
2019-03-24T23:24:56.566Z,6.49
2019-03-24T23:27:27.965Z,6.55
2019-03-24T23:29:59.372Z,6.43
2019-03-24T23:32:30.734Z,6.42
2019-03-24T23:35:02.327Z,6.43
2019-03-24T23:37:33.654Z,6.53
2019-03-24T23:40:05.613Z,6.50
2019-03-24T23:42:36.968Z,6.30
2019-03-24T23:45:11.955Z,6.19
2019-03-24T23:47:43.344Z,6.22
2019-03-24T23:50:15.030Z,6.15
2019-03-24T23:52:46.325Z,6.18
2019-03-24T23:55:18.099Z,6.22
2019-03-24T23:57:49.650Z,6.21
